Monday, August 20, 2018, 1:13 AM EDT
Back to Local

KBDL, Bradley International Airport

Location: Windsor Locks, CT, United States Lat: 41.933
Local Time: 1:13 AM EDT ( 5:13 GMT) Lon: -72.683
Time Zone: US/Eastern Elev: 173 ft

Show me the last for .
Show Coded

Time T Td Feel RH Dir Speed Gust Alt SLP Vis Weather Sky Remarks
2018-08-20 00:51 65 59 - 81 360° 6 - 30.13 30.12 10 BKN045 BKN095 BKN200 24-hr Min Temp (1am): 64.0°F
24-hr Max Temp (1am): 80.1°F
2018-08-19 23:51 65 59 - 81 340° 3 - 30.13 30.12 10 SCT050 BKN090 BKN200 None
2018-08-19 22:51 65 58 - 78 30° 6 - 30.11 30.11 10 BKN090 BKN220 None
2018-08-19 21:51 68 57 - 67 60° 7 - 30.11 30.10 10 BKN090 BKN220 None
2018-08-19 20:51 70 56 - 61 60° 6 - 30.10 30.10 10 BKN090 OVC190 None
2018-08-19 19:51 72 54 76 53 80° 12 - 30.08 30.08 10 BKN090 BKN190 6-hr Min Temp (8pm): 71.1°F
6-hr Max Temp (8pm): 80.1°F
2018-08-19 18:51 73 55 77 53 50° 9 - 30.06 30.06 10 FEW050 BKN090 BKN180 None
2018-08-19 17:51 74 54 77 49 60° 9 - 30.05 30.04 10 FEW042 BKN090 BKN240 None
2018-08-19 16:51 76 56 78 50 40° 12 - 30.03 30.03 10 FEW050 BKN090 BKN230 None
2018-08-19 15:51 77 56 78 48 40° 9 - 30.02 30.01 10 FEW050 BKN090 BKN250 None
2018-08-19 14:51 79 56 80 45 40° 14 - 30.01 30.01 10 FEW050 BKN090 BKN250 None
2018-08-19 13:51 79 58 80 48 30° 9 - 30.02 30.01 10 FEW046 BKN090 BKN250 6-hr Min Temp (2pm): 66.9°F
6-hr Max Temp (2pm): 79.0°F
2018-08-19 12:51 78 57 79 48 40° 15 - 30.01 30.01 10 FEW040 BKN090 BKN250 None
2018-08-19 11:51 75 56 77 51 40° 16 - 30.02 30.02 10 FEW035 BKN080 OVC250 None
2018-08-19 10:51 75 60 78 59 30° 13 - 30.02 30.01 10 FEW030 BKN085 BKN250 None
2018-08-19 09:51 70 60 - 70 40° 14 - 30.01 30.00 10 FEW028 BKN080 BKN250 None
2018-08-19 08:51 69 62 - 78 30° 13 - 29.99 29.99 10 FEW026 BKN080 BKN250 None
2018-08-19 07:51 67 62 - 84 360° 6 - 29.99 29.98 10 FEW020 BKN070 OVC250 6-hr Precip Total (8am): 0.00"
24-hr Precip Total (8am): 1.74"
6-hr Min Temp (8am): 64.9°F
6-hr Max Temp (8am): 66.9°F
2018-08-19 06:51 65 62 - 90 360° 9 - 29.97 29.96 10 FEW020 BKN065 BKN250 None
2018-08-19 05:51 65 63 - 93 360° 9 - 29.94 29.94 10 FEW009 FEW023 BKN060 1-hr Precip Total: Trace
2018-08-19 04:51 65 64 - 96 360° 8 - 29.94 29.93 8 -RA FEW008 SCT025 OVC049 1-hr Precip Total: Trace
6-hr Precip Total (5am): 0.00"
2018-08-19 04:18 65 64 - 96 360° 7 - 29.93 - 10 FEW007 SCT014 OVC033 1-hr Precip Total: Trace
2018-08-19 03:51 65 64 - 96 10° 9 - 29.93 29.93 7 -RA FEW007 BKN012 OVC026 1-hr Precip Total: Trace
2018-08-19 03:28 66 64 - 93 10° 9 - 29.93 - 8 -RA FEW007 BKN014 OVC029 1-hr Precip Total: Trace
2018-08-19 02:51 67 64 - 90 20° 14 - 29.92 29.91 10 FEW008 SCT025 OVC038 1-hr Precip Total: Trace
2018-08-19 02:45 66 64 - 93 30° 13 - 29.91 - 10 FEW008 SCT025 OVC038 1-hr Precip Total: Trace
2018-08-19 02:21 67 65 - 93 10° 14 - 29.90 - 10 -RA FEW008 SCT013 OVC022 1-hr Precip Total: Trace
2018-08-19 01:51 67 65 - 93 20° 10 - 29.90 29.90 6 -RA BR FEW008 BKN012 OVC027 1-hr Precip Total: 0.03"
6-hr Precip Total (2am): 0.03"
6-hr Min Temp (2am): 66.9°F
6-hr Max Temp (2am): 73.0°F
2018-08-19 01:47 66 64 - 93 20° 9 - 29.90 - 4 -RA BR FEW008 BKN012 OVC027 1-hr Precip Total: 0.03"
2018-08-19 01:33 68 65 - 89 10° 9 - 29.90 - 6 -RA BR BKN014 OVC026 1-hr Precip Total: 0.02"

Support USWX by starting your Amazon purchase here.